AirNav   Air Wisconsin Up To $57,000 Bonus
 
 629 users online  

65MI Jet Pad Heliport
Lansing, Michigan, USA

GOING TO LANSING?


FAA INFORMATION EFFECTIVE 02 JANUARY 2020

Location

FAA Identifier: 65MI
Lat/Long: 42-40-50.0000N 084-31-36.0000W
42-40.833333N 084-31.600000W
42.6805556,-84.5266667
(estimated)
Elevation: 850 ft. / 259 m (estimated)
From city: 4 miles SE of LANSING, MI
Time zone: UTC -5 (UTC -4 during Daylight Saving Time)
Zip code: 48924

Heliport Operations

Heliport use: Private use. Permission required prior to landing
Activation date: 03/2007
Control tower: no
ARTCC: CLEVELAND CENTER
FSS: LANSING FLIGHT SERVICE STATION
Attendance: UNATNDD
Segmented circle: no

Heliport Communications

WX ASOS at LAN (6 nm NW): 119.75 (517-908-8494)
WX AWOS-3 at TEW (8 nm SE): 119.425 (517-676-5607)
WX AWOS-3 at FPK (14 nm SW): 118.075 (517-543-2288)

Nearby radio navigation aids

VOR radial/distance  VOR name  Freq  Var
JXNr358/25.5JACKSON VOR/DME109.6005W
FNTr249/38.4FLINT VORTAC116.9006W
LFDr021/38.6LITCHFIELD VOR/DME111.2005W

Heliport Services

Runway Information

Helipad H1

Dimensions: 150 x 150 ft. / 46 x 46 m
Surface: turf
Traffic pattern: leftleft

Heliport Ownership and Management from official FAA records

Ownership: Privately-owned
Owner: WADE HABERKAMP
6044 LAKEVIEW PARK DR.
LINDEN, MI 48451
Phone 810-735-6346
Manager: WADE HABERKAMP
6044 LAKEVIEW PARK DR.
LINDEN, MI 48451
Phone 810-735-6346

Additional Remarks

250 FT CELL TWR 1,500 FT W; 100 FT PLINE 400 FT N; 60 FT PLINE 200 FT W & 60 FT TREES 100 FT E & SW.
FOR CD CTC GREAT LAKES APCH AT 269-459-3345, WHEN APCH CLSD CTC CLEVELAND ARTCC AT 440-774-0490

Instrument Procedures

There are no published instrument procedures at 65MI.

Some nearby airports with instrument procedures:

KLAN - Capital Region International Airport (6 nm NW)
KTEW - Mason Jewett Field Airport (8 nm SE)
4D0 - Abrams Municipal Airport (11 nm NW)
KFPK - Fitch H Beach Airport (14 nm SW)
KOZW - Livingston County Spencer J Hardy Airport (24 nm E)
 
Loc | Ops | Rwys | IFR | FBO | Links
Com | Nav | Svcs | Stats | Notes
Area around 65MI (Jet Pad Heliport)
 
Road maps at: MapQuest Bing Google
 
Aerial photo
No photo
 
Sectional chart

 
Airport distance calculator
Flying to Jet Pad Heliport? Find the distance to fly.

From to 65MI

Sunrise and sunset
Times for 19-Jan-2020
 Local
(UTC-5)
 Zulu
(UTC)
Morning civil twilight07:3412:34
Sunrise08:0513:05
Sunset17:3322:33
Evening civil twilight18:0423:04

Current date and time
Zulu (UTC)  19-Jan-2020 10:44:25
Local (UTC-5)  19-Jan-2020 05:44:25
 
METAR
KLAN 
7nm N 
191038Z 25020G30KT 5SM -SN OVC016 M08/M11 A2992 RMK AO2 PK WND 25032/1027 P0000 T10781111 $
KTEW 
8nm SE 
191036Z AUTO 26012G22KT 10SM -SN OVC015 M08/M11 A2992 RMK AO2 T10851113
KFPK 
15nm SW 
191035Z AUTO 26011G22KT 7SM -SN OVC015 M08/M11 A2992 RMK AO2 T10831113
TAF
KLAN 
7nm N 
191001Z 1910/2006 25017G26KT 3SM -SN OVC015 TEMPO 1910/1911 1SM -SHSN FM191400 28014G22KT 2SM -SHSN OVC012 FM191800 32012G20KT P6SM -SHSN OVC029 FM192300 34007KT P6SM -SHSN BKN026 FM200000 33007KT P6SM BKN050
NOTAMs
Click for the latest NOTAMs
NOTAMs are issued by the DoD/FAA and will open in a separate window not controlled by AirNav.

 

 
 

Would you like to see your business listed on this page?

 If your business provides an interesting product or service to pilots, flight crews, aircraft, or users of the Jet Pad Heliport, you should consider listing it here.  To start the listing process, click on the button below
 
Add a business
 

Other Pages about Jet Pad Heliport

Update a link
 
Copyright © AirNav, LLC. All rights reserved. Privacy Policy  Contact